createdAt,value
2023-04-10T00:01:08.353Z,73.24
2023-04-10T00:03:41.576Z,73.18
2023-04-10T00:06:13.917Z,73.25
2023-04-10T00:08:46.071Z,73.09
2023-04-10T00:11:18.372Z,73.06
2023-04-10T00:13:51.069Z,73.08
2023-04-10T00:16:24.047Z,72.82
2023-04-10T00:18:56.190Z,72.91
2023-04-10T00:21:29.637Z,72.85
2023-04-10T00:24:02.344Z,73.08
2023-04-10T00:26:34.701Z,73.08
2023-04-10T00:29:08.465Z,73.17
2023-04-10T00:31:40.816Z,73.24
2023-04-10T00:34:14.324Z,73.22
2023-04-10T00:36:48.255Z,73.27
2023-04-10T00:39:20.669Z,73.08
2023-04-10T00:41:52.978Z,73.04
2023-04-10T00:44:25.278Z,72.91
2023-04-10T00:46:57.550Z,72.87
2023-04-10T00:49:30.083Z,72.81
2023-04-10T00:52:02.600Z,73.13
2023-04-10T00:54:36.344Z,73.02
2023-04-10T00:57:08.758Z,73.01
2023-04-10T00:59:41.192Z,73.11
2023-04-10T01:02:13.676Z,73.05
2023-04-10T01:04:46.059Z,73.03
2023-04-10T01:07:39.836Z,73.11
2023-04-10T01:10:19.722Z,73.16
2023-04-10T01:13:05.946Z,73.10
2023-04-10T01:15:47.708Z,73.10
2023-04-10T01:18:25.653Z,73.00
2023-04-10T01:20:58.979Z,72.75
2023-04-10T01:23:55.018Z,73.03
2023-04-10T01:26:40.876Z,72.74
2023-04-10T01:29:19.706Z,72.86
2023-04-10T01:31:59.440Z,72.97
2023-04-10T01:34:38.274Z,73.06
2023-04-10T01:37:13.991Z,73.18
2023-04-10T01:39:49.358Z,73.15
2023-04-10T01:42:24.493Z,73.26
2023-04-10T01:44:58.846Z,73.10
2023-04-10T01:47:31.237Z,73.11
2023-04-10T01:50:04.745Z,73.08
2023-04-10T01:52:37.347Z,72.91
2023-04-10T01:55:30.822Z,72.84
2023-04-10T01:58:08.414Z,72.98
2023-04-10T02:00:44.664Z,72.94
2023-04-10T02:03:17.139Z,73.13
2023-04-10T02:06:03.603Z,73.19
2023-04-10T02:08:39.924Z,73.20
2023-04-10T02:11:19.038Z,73.04
2023-04-10T02:13:54.643Z,73.18
2023-04-10T02:16:27.785Z,73.29
2023-04-10T02:19:02.376Z,73.20
2023-04-10T02:21:36.762Z,73.10
2023-04-10T02:24:09.312Z,73.05
2023-04-10T02:26:52.103Z,72.82
2023-04-10T02:29:24.151Z,73.00
2023-04-10T02:31:56.297Z,73.02
2023-04-10T02:34:28.493Z,73.08
2023-04-10T02:37:00.547Z,73.09
2023-04-10T02:39:37.232Z,73.04
2023-04-10T02:42:09.820Z,73.22
2023-04-10T02:44:42.335Z,73.16
2023-04-10T02:47:14.729Z,73.25
2023-04-10T02:49:49.438Z,73.10
2023-04-10T02:52:22.077Z,73.13
2023-04-10T02:54:54.281Z,72.96
2023-04-10T02:57:27.316Z,72.86
2023-04-10T02:59:59.500Z,72.91
2023-04-10T03:02:32.968Z,72.89
2023-04-10T03:05:12.614Z,72.83
2023-04-10T03:07:43.214Z,73.06
2023-04-10T03:10:15.655Z,72.95
2023-04-10T03:12:48.924Z,73.03
2023-04-10T03:15:21.359Z,73.11
2023-04-10T03:17:53.565Z,73.05
2023-04-10T03:20:25.781Z,73.05
2023-04-10T03:22:57.905Z,73.07
2023-04-10T03:25:31.843Z,72.86
2023-04-10T03:28:04.588Z,72.85
2023-04-10T03:30:37.253Z,72.71
2023-04-10T03:33:09.752Z,72.76
2023-04-10T03:35:42.268Z,72.89
2023-04-10T03:38:14.612Z,73.08
2023-04-10T03:40:46.953Z,73.06
2023-04-10T03:43:19.818Z,72.95
2023-04-10T03:45:52.564Z,73.06
2023-04-10T03:48:28.384Z,72.98
2023-04-10T03:51:01.087Z,72.87
2023-04-10T03:53:36.263Z,72.82
2023-04-10T03:56:11.992Z,72.80
2023-04-10T03:58:44.438Z,72.85
2023-04-10T04:01:17.454Z,73.02
2023-04-10T04:04:03.248Z,72.84
2023-04-10T04:06:54.208Z,72.89
2023-04-10T04:09:56.483Z,72.92
2023-04-10T04:12:43.601Z,72.99
2023-04-10T04:15:29.550Z,72.99
2023-04-10T04:18:13.341Z,72.82
2023-04-10T04:20:48.543Z,72.71
2023-04-10T04:23:39.482Z,72.85
2023-04-10T04:26:15.729Z,72.78
2023-04-10T04:29:06.985Z,72.77
2023-04-10T04:31:57.733Z,72.84
2023-04-10T04:34:56.148Z,73.05
2023-04-10T04:37:46.993Z,73.08
2023-04-10T04:40:28.059Z,73.08
2023-04-10T04:43:09.589Z,73.24
2023-04-10T04:45:59.845Z,73.28
2023-04-10T04:48:58.087Z,73.16
2023-04-10T04:51:38.319Z,73.08
2023-04-10T04:54:15.539Z,72.97
2023-04-10T04:57:04.710Z,72.93
2023-04-10T04:59:55.528Z,73.07
2023-04-10T05:02:59.814Z,73.05
2023-04-10T05:05:42.289Z,73.20
2023-04-10T05:08:31.937Z,73.29
2023-04-10T05:11:14.635Z,73.35
2023-04-10T05:14:05.628Z,73.38
2023-04-10T05:16:44.108Z,73.47
2023-04-10T05:19:42.672Z,73.51
2023-04-10T05:22:54.111Z,73.58
2023-04-10T05:26:06.186Z,73.48
2023-04-10T05:28:57.262Z,73.49
2023-04-10T05:31:59.233Z,73.41
2023-04-10T05:35:04.115Z,73.41
2023-04-10T05:37:50.438Z,73.53
2023-04-10T05:40:48.683Z,73.59
2023-04-10T05:43:41.683Z,73.68
2023-04-10T05:46:32.534Z,73.83
2023-04-10T05:49:19.433Z,73.95
2023-04-10T05:52:02.168Z,73.96
2023-04-10T05:54:43.408Z,74.02
2023-04-10T05:57:36.625Z,73.95
2023-04-10T06:00:23.720Z,74.00
2023-04-10T06:03:14.897Z,74.00
2023-04-10T06:05:54.474Z,73.79
2023-04-10T06:08:26.760Z,73.80
2023-04-10T06:10:59.006Z,73.88
2023-04-10T06:13:32.507Z,73.89
2023-04-10T06:16:05.638Z,73.98
2023-04-10T06:18:38.497Z,73.98
2023-04-10T06:21:12.496Z,74.25
2023-04-10T06:23:45.052Z,74.12
2023-04-10T06:26:17.175Z,74.08
2023-04-10T06:28:49.284Z,74.30
2023-04-10T06:31:23.199Z,74.13
2023-04-10T06:33:55.859Z,74.31
2023-04-10T06:36:28.827Z,74.35
2023-04-10T06:39:08.426Z,74.20
2023-04-10T06:41:40.634Z,74.08
2023-04-10T06:44:21.263Z,74.20
2023-04-10T06:46:53.799Z,73.82
2023-04-10T06:49:26.592Z,73.88
2023-04-10T06:51:58.794Z,73.87
2023-04-10T06:54:31.441Z,74.01
2023-04-10T06:57:04.025Z,73.83
2023-04-10T06:59:36.181Z,73.89
2023-04-10T07:02:09.089Z,74.05
2023-04-10T07:04:41.262Z,73.99
2023-04-10T07:07:14.150Z,74.06
2023-04-10T07:09:46.477Z,73.98
2023-04-10T07:12:18.788Z,74.07
2023-04-10T07:14:51.053Z,74.01
2023-04-10T07:17:23.277Z,73.89
2023-04-10T07:19:55.728Z,73.89
2023-04-10T07:22:28.067Z,73.88
2023-04-10T07:25:00.224Z,73.71
2023-04-10T07:27:32.338Z,73.69
2023-04-10T07:30:04.520Z,73.62
2023-04-10T07:32:39.958Z,73.56
2023-04-10T07:35:13.023Z,73.61
2023-04-10T07:37:45.420Z,73.40
2023-04-10T07:40:17.842Z,73.55
2023-04-10T07:42:53.805Z,73.45
2023-04-10T07:45:27.916Z,73.38
2023-04-10T07:48:00.136Z,73.23
2023-04-10T07:50:32.416Z,73.14
2023-04-10T07:53:08.002Z,73.03
2023-04-10T07:55:44.042Z,72.97
2023-04-10T07:58:16.509Z,72.81
2023-04-10T08:00:48.651Z,72.58
2023-04-10T08:03:20.951Z,72.72
2023-04-10T08:05:53.220Z,72.66
2023-04-10T08:08:25.455Z,72.52
2023-04-10T08:10:57.594Z,72.36
2023-04-10T08:13:29.955Z,72.31
2023-04-10T08:16:02.139Z,72.24
2023-04-10T08:18:34.292Z,72.01
2023-04-10T08:21:06.888Z,72.01
2023-04-10T08:23:39.081Z,72.03
2023-04-10T08:26:11.322Z,71.87
2023-04-10T08:28:47.302Z,71.50
2023-04-10T08:31:19.963Z,71.63
2023-04-10T08:33:52.998Z,71.52
2023-04-10T08:36:25.450Z,71.48
2023-04-10T08:38:57.702Z,71.33
2023-04-10T08:41:29.880Z,71.31
2023-04-10T08:44:02.001Z,71.12
2023-04-10T08:46:37.372Z,71.11
2023-04-10T08:49:11.779Z,70.78
2023-04-10T08:51:49.167Z,70.63
2023-04-10T08:54:27.125Z,70.77
2023-04-10T08:57:01.529Z,70.40
2023-04-10T08:59:34.189Z,70.33
2023-04-10T09:02:07.513Z,70.17
2023-04-10T09:04:39.985Z,70.08
2023-04-10T09:07:12.195Z,70.01
2023-04-10T09:09:44.394Z,69.84
2023-04-10T09:12:17.788Z,69.49
2023-04-10T09:14:53.483Z,69.65
2023-04-10T09:17:26.538Z,69.51
2023-04-10T09:19:59.018Z,69.30
2023-04-10T09:22:35.204Z,69.29
2023-04-10T09:25:28.557Z,69.06
2023-04-10T09:28:05.519Z,69.05
2023-04-10T09:30:40.169Z,68.95
2023-04-10T09:33:28.069Z,68.71
2023-04-10T09:36:01.204Z,68.92
2023-04-10T09:38:33.413Z,68.82
2023-04-10T09:41:13.184Z,68.72
2023-04-10T09:43:46.387Z,68.45
2023-04-10T09:46:29.356Z,68.43
2023-04-10T09:49:05.070Z,68.12
2023-04-10T09:51:39.412Z,67.87
2023-04-10T09:54:11.543Z,67.73
2023-04-10T09:56:46.548Z,67.63
2023-04-10T09:59:19.570Z,67.63
2023-04-10T10:01:51.832Z,67.32
2023-04-10T10:04:24.540Z,67.21
2023-04-10T10:06:56.725Z,66.98
2023-04-10T10:09:29.461Z,66.94
2023-04-10T10:12:02.298Z,66.71
2023-04-10T10:14:39.388Z,66.73
2023-04-10T10:17:15.758Z,66.51
2023-04-10T10:19:54.936Z,66.27
2023-04-10T10:22:30.527Z,66.31
2023-04-10T10:25:03.816Z,66.10
2023-04-10T10:27:39.690Z,65.70
2023-04-10T10:30:28.296Z,65.87
2023-04-10T10:33:03.745Z,65.70
2023-04-10T10:35:37.604Z,65.44
2023-04-10T10:38:11.147Z,65.26
2023-04-10T10:40:50.567Z,65.17
2023-04-10T10:43:39.140Z,65.03
2023-04-10T10:46:16.153Z,64.66
2023-04-10T10:48:59.440Z,64.37
2023-04-10T10:51:45.631Z,64.64
2023-04-10T10:54:42.472Z,64.24
2023-04-10T10:57:48.333Z,63.98
2023-04-10T11:00:21.644Z,63.87
2023-04-10T11:03:32.303Z,63.59
2023-04-10T11:06:07.324Z,63.44
2023-04-10T11:08:47.670Z,63.33
2023-04-10T11:11:21.915Z,63.21
2023-04-10T11:14:18.205Z,63.05
2023-04-10T11:16:50.733Z,63.17
2023-04-10T11:19:25.566Z,63.01
2023-04-10T11:22:07.560Z,62.88
2023-04-10T11:25:01.988Z,62.82
2023-04-10T11:27:42.495Z,62.68
2023-04-10T11:30:37.650Z,62.69
2023-04-10T11:33:09.747Z,62.84
2023-04-10T11:35:42.462Z,62.81
2023-04-10T11:38:19.051Z,62.61
2023-04-10T11:40:58.916Z,62.69
2023-04-10T11:43:31.366Z,62.55
2023-04-10T11:46:05.838Z,62.53
2023-04-10T11:48:39.345Z,62.50
2023-04-10T11:51:13.554Z,62.37
2023-04-10T11:53:46.392Z,62.23
2023-04-10T11:56:23.028Z,62.03
2023-04-10T11:58:55.591Z,61.72
2023-04-10T12:01:28.040Z,61.45
2023-04-10T12:04:01.121Z,61.38
2023-04-10T12:06:33.414Z,61.33
2023-04-10T12:09:17.238Z,61.13
2023-04-10T12:11:59.519Z,61.20
2023-04-10T12:14:35.981Z,60.95
2023-04-10T12:17:09.643Z,60.84
2023-04-10T12:19:42.706Z,60.83
2023-04-10T12:22:15.935Z,60.77
2023-04-10T12:24:49.087Z,60.87
2023-04-10T12:27:22.684Z,60.70
2023-04-10T12:29:56.358Z,60.55
2023-04-10T12:32:28.678Z,60.57
2023-04-10T12:35:02.409Z,60.54
2023-04-10T12:37:52.364Z,60.47
2023-04-10T12:40:24.640Z,60.42
2023-04-10T12:42:56.874Z,60.43
2023-04-10T12:45:45.451Z,60.45
2023-04-10T12:48:25.582Z,60.43
2023-04-10T12:50:57.773Z,60.38
2023-04-10T12:53:30.570Z,60.30
2023-04-10T12:56:06.621Z,60.28
2023-04-10T12:58:39.208Z,60.28
2023-04-10T13:01:14.313Z,60.36
2023-04-10T13:03:48.813Z,60.27
2023-04-10T13:06:19.585Z,60.34
2023-04-10T13:08:53.086Z,60.46
2023-04-10T13:11:25.492Z,60.36
2023-04-10T13:13:57.624Z,60.37
2023-04-10T13:16:29.768Z,60.38
2023-04-10T13:19:02.042Z,60.35
2023-04-10T13:21:34.110Z,60.34
2023-04-10T13:24:06.408Z,60.27
2023-04-10T13:26:38.495Z,60.26
2023-04-10T13:29:10.774Z,60.31
2023-04-10T13:31:43.011Z,60.19
2023-04-10T13:34:15.095Z,60.21
2023-04-10T13:36:47.216Z,60.32
2023-04-10T13:39:19.792Z,60.31
2023-04-10T13:41:51.930Z,60.37
2023-04-10T13:44:24.161Z,60.26
2023-04-10T13:46:58.157Z,60.33
2023-04-10T13:49:31.400Z,60.20
2023-04-10T13:52:03.454Z,60.29
2023-04-10T13:54:35.595Z,60.25
2023-04-10T13:57:07.726Z,60.32
2023-04-10T13:59:39.815Z,60.34
2023-04-10T14:02:12.110Z,60.30
2023-04-10T14:04:46.246Z,60.29
2023-04-10T14:07:18.297Z,60.30
2023-04-10T14:09:50.424Z,60.22
2023-04-10T14:12:23.280Z,60.31
2023-04-10T14:14:56.935Z,60.31
2023-04-10T14:17:29.276Z,60.41
2023-04-10T14:20:01.871Z,60.34
2023-04-10T14:22:33.937Z,60.27
2023-04-10T14:25:12.922Z,60.20
2023-04-10T14:27:46.637Z,60.15
2023-04-10T14:30:18.859Z,60.20
2023-04-10T14:32:51.195Z,60.08
2023-04-10T14:35:23.396Z,60.08
2023-04-10T14:37:55.701Z,60.01
2023-04-10T14:40:28.057Z,60.09
2023-04-10T14:43:00.152Z,59.96
2023-04-10T14:45:32.788Z,60.04
2023-04-10T14:48:05.077Z,59.97
2023-04-10T14:50:37.334Z,59.95
2023-04-10T14:53:10.667Z,59.95
2023-04-10T14:55:42.948Z,59.87
2023-04-10T14:58:15.061Z,59.81
2023-04-10T15:00:47.171Z,59.92
2023-04-10T15:03:19.435Z,59.90
2023-04-10T15:05:59.467Z,59.82
2023-04-10T15:08:31.604Z,59.76
2023-04-10T15:11:05.287Z,59.75
2023-04-10T15:13:37.923Z,59.68
2023-04-10T15:16:12.074Z,59.67
2023-04-10T15:18:46.161Z,59.68
2023-04-10T15:21:18.656Z,59.63
2023-04-10T15:23:50.914Z,59.67
2023-04-10T15:26:22.963Z,59.69
2023-04-10T15:28:55.143Z,59.59
2023-04-10T15:31:27.400Z,59.64
2023-04-10T15:33:59.532Z,59.59
2023-04-10T15:36:32.173Z,59.55
2023-04-10T15:39:04.842Z,59.66
2023-04-10T15:41:37.215Z,59.57
2023-04-10T15:44:09.475Z,59.58
2023-04-10T15:46:41.550Z,59.54
2023-04-10T15:49:20.399Z,59.59
2023-04-10T15:51:58.483Z,59.63
2023-04-10T15:54:30.716Z,59.51
2023-04-10T15:57:02.972Z,59.56
2023-04-10T15:59:36.088Z,59.51
2023-04-10T16:02:08.368Z,59.42
2023-04-10T16:04:40.749Z,59.49
2023-04-10T16:07:12.930Z,59.35
2023-04-10T16:09:45.141Z,59.38
2023-04-10T16:12:17.313Z,59.30
2023-04-10T16:14:49.381Z,59.27
2023-04-10T16:17:21.586Z,59.21
2023-04-10T16:19:53.746Z,59.11
2023-04-10T16:22:26.488Z,59.03
2023-04-10T16:27:39.008Z,59.04
2023-04-10T16:30:13.803Z,59.17
2023-04-10T16:32:46.278Z,59.15
2023-04-10T16:35:19.275Z,59.09
2023-04-10T16:37:51.646Z,59.10
2023-04-10T16:40:27.723Z,59.14
2023-04-10T16:43:01.156Z,59.27
2023-04-10T16:45:33.317Z,59.26
2023-04-10T16:48:05.579Z,59.25
2023-04-10T16:50:38.724Z,59.23
2023-04-10T16:53:10.806Z,59.27
2023-04-10T16:55:42.953Z,59.35
2023-04-10T16:58:15.057Z,59.21
2023-04-10T17:00:47.336Z,59.28
2023-04-10T17:03:19.513Z,59.33
2023-04-10T17:05:51.657Z,59.31
2023-04-10T17:08:23.761Z,59.29
2023-04-10T17:10:55.865Z,59.37
2023-04-10T17:13:28.025Z,59.31
2023-04-10T17:16:00.359Z,59.35
2023-04-10T17:18:32.594Z,59.38
2023-04-10T17:21:04.882Z,59.39
2023-04-10T17:23:37.407Z,59.41
2023-04-10T17:26:13.508Z,59.55
2023-04-10T17:28:46.694Z,59.64
2023-04-10T17:31:19.975Z,59.74
2023-04-10T17:33:52.118Z,59.67
2023-04-10T17:36:24.435Z,59.75
2023-04-10T17:38:56.833Z,59.78
2023-04-10T17:41:29.690Z,59.84
2023-04-10T17:44:03.311Z,59.98
2023-04-10T17:46:35.498Z,60.02
2023-04-10T17:49:08.102Z,60.02
2023-04-10T17:51:41.931Z,60.11
2023-04-10T17:54:14.555Z,60.00
2023-04-10T17:56:47.248Z,59.96
2023-04-10T17:59:19.359Z,60.08
2023-04-10T18:01:51.640Z,60.22
2023-04-10T18:04:24.146Z,60.27
2023-04-10T18:06:56.371Z,60.44
2023-04-10T18:09:28.554Z,60.59
2023-04-10T18:12:01.520Z,60.64
2023-04-10T18:14:33.753Z,60.68
2023-04-10T18:17:06.229Z,60.68
2023-04-10T18:19:39.366Z,60.65
2023-04-10T18:22:11.950Z,60.81
2023-04-10T18:24:46.896Z,60.92
2023-04-10T18:27:19.044Z,60.83
2023-04-10T18:29:51.185Z,60.62
2023-04-10T18:32:23.264Z,60.90
2023-04-10T18:34:55.643Z,60.95
2023-04-10T18:37:27.905Z,60.90
2023-04-10T18:40:06.422Z,61.09
2023-04-10T18:42:46.105Z,61.02
2023-04-10T18:45:19.316Z,61.17
2023-04-10T18:47:51.481Z,61.24
2023-04-10T18:50:24.066Z,61.42
2023-04-10T18:52:56.246Z,61.25
2023-04-10T18:55:28.552Z,61.49
2023-04-10T18:58:00.850Z,61.57
2023-04-10T19:00:34.345Z,61.51
2023-04-10T19:03:06.768Z,61.44
2023-04-10T19:05:39.239Z,61.46
2023-04-10T19:08:14.296Z,61.62
2023-04-10T19:10:46.460Z,61.66
2023-04-10T19:13:18.629Z,61.85
2023-04-10T19:15:51.340Z,61.91
2023-04-10T19:18:23.440Z,61.98
2023-04-10T19:20:55.609Z,61.86
2023-04-10T19:23:27.692Z,62.00
2023-04-10T19:26:00.413Z,62.06
2023-04-10T19:28:33.381Z,62.06
2023-04-10T19:31:06.160Z,62.16
2023-04-10T19:33:38.364Z,62.17
2023-04-10T19:36:11.459Z,62.06
2023-04-10T19:38:45.053Z,62.24
2023-04-10T19:41:18.051Z,62.39
2023-04-10T19:43:52.746Z,62.50
2023-04-10T19:46:23.639Z,62.48
2023-04-10T19:48:55.927Z,62.52
2023-04-10T19:51:28.162Z,62.58
2023-04-10T19:54:00.442Z,62.67
2023-04-10T19:56:32.961Z,62.68
2023-04-10T19:59:05.151Z,62.67
